sensor_id;sensor_type;location;lat;lon;timestamp;temperature;humidity
45785;DHT22;31489;51.404;5.474;2022-12-05T00:04:06;7.90;66.80
45785;DHT22;31489;51.404;5.474;2022-12-05T00:06:33;7.80;66.80
45785;DHT22;31489;51.404;5.474;2022-12-05T00:08:59;7.80;66.80
45785;DHT22;31489;51.404;5.474;2022-12-05T00:11:31;7.80;66.90
45785;DHT22;31489;51.404;5.474;2022-12-05T00:13:59;7.80;67.10
45785;DHT22;31489;51.404;5.474;2022-12-05T00:16:27;7.80;67.10
45785;DHT22;31489;51.404;5.474;2022-12-05T00:18:54;7.90;67.20
45785;DHT22;31489;51.404;5.474;2022-12-05T00:21:22;7.80;67.10
45785;DHT22;31489;51.404;5.474;2022-12-05T00:23:49;7.80;67.10
45785;DHT22;31489;51.404;5.474;2022-12-05T00:26:15;7.80;67.10
45785;DHT22;31489;51.404;5.474;2022-12-05T00:28:42;7.80;67.10
45785;DHT22;31489;51.404;5.474;2022-12-05T00:31:10;7.80;67.10
45785;DHT22;31489;51.404;5.474;2022-12-05T00:33:39;7.90;67.20
45785;DHT22;31489;51.404;5.474;2022-12-05T00:36:07;7.90;67.30
45785;DHT22;31489;51.404;5.474;2022-12-05T00:38:34;7.90;67.30
45785;DHT22;31489;51.404;5.474;2022-12-05T00:41:11;7.90;67.20
45785;DHT22;31489;51.404;5.474;2022-12-05T00:43:38;7.90;67.30
45785;DHT22;31489;51.404;5.474;2022-12-05T00:46:05;7.90;67.30
45785;DHT22;31489;51.404;5.474;2022-12-05T00:48:31;7.90;67.30
45785;DHT22;31489;51.404;5.474;2022-12-05T00:51:15;7.90;67.30
45785;DHT22;31489;51.404;5.474;2022-12-05T00:53:42;7.90;67.60
45785;DHT22;31489;51.404;5.474;2022-12-05T00:56:12;7.90;67.30
45785;DHT22;31489;51.404;5.474;2022-12-05T00:58:38;7.90;67.30
45785;DHT22;31489;51.404;5.474;2022-12-05T01:01:12;7.90;67.30
45785;DHT22;31489;51.404;5.474;2022-12-05T01:03:38;7.90;67.50
45785;DHT22;31489;51.404;5.474;2022-12-05T01:06:05;7.90;67.50
45785;DHT22;31489;51.404;5.474;2022-12-05T01:08:31;7.90;67.30
45785;DHT22;31489;51.404;5.474;2022-12-05T01:10:58;7.90;67.40
45785;DHT22;31489;51.404;5.474;2022-12-05T01:13:24;7.90;67.50
45785;DHT22;31489;51.404;5.474;2022-12-05T01:15:50;7.90;67.60
45785;DHT22;31489;51.404;5.474;2022-12-05T01:18:17;7.90;67.70
45785;DHT22;31489;51.404;5.474;2022-12-05T01:20:43;7.90;67.80
45785;DHT22;31489;51.404;5.474;2022-12-05T01:23:09;7.90;67.80
45785;DHT22;31489;51.404;5.474;2022-12-05T01:25:39;7.90;67.80
45785;DHT22;31489;51.404;5.474;2022-12-05T01:28:05;7.90;67.90
45785;DHT22;31489;51.404;5.474;2022-12-05T01:30:31;7.90;68.40
45785;DHT22;31489;51.404;5.474;2022-12-05T01:32:58;7.90;67.80
45785;DHT22;31489;51.404;5.474;2022-12-05T01:35:24;7.90;67.90
45785;DHT22;31489;51.404;5.474;2022-12-05T01:37:50;7.90;67.90
45785;DHT22;31489;51.404;5.474;2022-12-05T01:40:16;7.90;68.00
45785;DHT22;31489;51.404;5.474;2022-12-05T01:42:42;7.90;68.10
45785;DHT22;31489;51.404;5.474;2022-12-05T01:45:25;7.90;68.10
45785;DHT22;31489;51.404;5.474;2022-12-05T01:47:55;7.90;68.20
45785;DHT22;31489;51.404;5.474;2022-12-05T01:50:21;8.00;68.00
45785;DHT22;31489;51.404;5.474;2022-12-05T01:52:47;7.90;67.90
45785;DHT22;31489;51.404;5.474;2022-12-05T01:55:16;7.90;67.90
45785;DHT22;31489;51.404;5.474;2022-12-05T01:57:43;7.90;68.10
45785;DHT22;31489;51.404;5.474;2022-12-05T02:00:15;7.90;68.10
45785;DHT22;31489;51.404;5.474;2022-12-05T02:02:45;7.90;68.20
45785;DHT22;31489;51.404;5.474;2022-12-05T02:05:27;7.90;68.20
45785;DHT22;31489;51.404;5.474;2022-12-05T02:07:52;7.90;68.50
45785;DHT22;31489;51.404;5.474;2022-12-05T02:10:19;7.90;68.20
45785;DHT22;31489;51.404;5.474;2022-12-05T02:12:45;7.90;68.20
45785;DHT22;31489;51.404;5.474;2022-12-05T02:21:07;8.00;68.60
45785;DHT22;31489;51.404;5.474;2022-12-05T02:24:06;8.00;68.50
45785;DHT22;31489;51.404;5.474;2022-12-05T02:37:41;8.00;68.50
45785;DHT22;31489;51.404;5.474;2022-12-05T02:40:18;8.00;68.50
45785;DHT22;31489;51.404;5.474;2022-12-05T02:45:16;8.00;68.60
45785;DHT22;31489;51.404;5.474;2022-12-05T02:47:54;7.90;68.50
45785;DHT22;31489;51.404;5.474;2022-12-05T02:50:28;7.90;68.70
45785;DHT22;31489;51.404;5.474;2022-12-05T02:52:57;8.00;68.70
45785;DHT22;31489;51.404;5.474;2022-12-05T02:55:25;8.00;68.80
45785;DHT22;31489;51.404;5.474;2022-12-05T02:57:55;8.00;68.70
45785;DHT22;31489;51.404;5.474;2022-12-05T03:00:22;8.00;68.90
45785;DHT22;31489;51.404;5.474;2022-12-05T03:02:51;8.00;68.80
45785;DHT22;31489;51.404;5.474;2022-12-05T03:05:27;8.00;68.90
45785;DHT22;31489;51.404;5.474;2022-12-05T03:07:57;8.00;69.00
45785;DHT22;31489;51.404;5.474;2022-12-05T03:10:28;8.00;69.10
45785;DHT22;31489;51.404;5.474;2022-12-05T03:13:04;8.00;69.00
45785;DHT22;31489;51.404;5.474;2022-12-05T03:15:40;8.00;69.10
45785;DHT22;31489;51.404;5.474;2022-12-05T03:18:14;8.00;69.10
45785;DHT22;31489;51.404;5.474;2022-12-05T03:20:56;8.00;68.90
45785;DHT22;31489;51.404;5.474;2022-12-05T03:23:31;8.00;69.10
45785;DHT22;31489;51.404;5.474;2022-12-05T03:29:21;8.00;69.40
45785;DHT22;31489;51.404;5.474;2022-12-05T03:32:10;8.00;69.30
45785;DHT22;31489;51.404;5.474;2022-12-05T03:38:00;8.00;69.20
45785;DHT22;31489;51.404;5.474;2022-12-05T03:42:36;8.00;69.40
45785;DHT22;31489;51.404;5.474;2022-12-05T03:45:10;8.00;69.20
45785;DHT22;31489;51.404;5.474;2022-12-05T03:47:55;8.00;69.10
45785;DHT22;31489;51.404;5.474;2022-12-05T03:50:28;8.00;69.20
45785;DHT22;31489;51.404;5.474;2022-12-05T03:53:24;8.00;69.20
45785;DHT22;31489;51.404;5.474;2022-12-05T03:56:02;8.00;69.40
45785;DHT22;31489;51.404;5.474;2022-12-05T03:58:34;8.00;69.20
45785;DHT22;31489;51.404;5.474;2022-12-05T04:01:02;8.00;69.20
45785;DHT22;31489;51.404;5.474;2022-12-05T04:03:39;8.00;69.20
45785;DHT22;31489;51.404;5.474;2022-12-05T04:08:52;8.10;69.40
45785;DHT22;31489;51.404;5.474;2022-12-05T04:11:24;8.00;69.20
45785;DHT22;31489;51.404;5.474;2022-12-05T04:13:53;8.00;69.20
45785;DHT22;31489;51.404;5.474;2022-12-05T04:16:28;8.10;69.30
45785;DHT22;31489;51.404;5.474;2022-12-05T04:21:46;8.00;69.20
45785;DHT22;31489;51.404;5.474;2022-12-05T04:24:15;8.00;69.20
45785;DHT22;31489;51.404;5.474;2022-12-05T04:32:37;8.10;69.30
45785;DHT22;31489;51.404;5.474;2022-12-05T04:35:10;8.00;69.20
45785;DHT22;31489;51.404;5.474;2022-12-05T04:37:41;8.00;69.20
45785;DHT22;31489;51.404;5.474;2022-12-05T04:43:14;8.10;69.40
45785;DHT22;31489;51.404;5.474;2022-12-05T04:45:41;8.10;69.30
45785;DHT22;31489;51.404;5.474;2022-12-05T04:48:12;8.10;69.20
45785;DHT22;31489;51.404;5.474;2022-12-05T04:50:39;8.10;69.10
45785;DHT22;31489;51.404;5.474;2022-12-05T04:53:07;8.10;69.20
45785;DHT22;31489;51.404;5.474;2022-12-05T04:55:35;8.10;69.20
45785;DHT22;31489;51.404;5.474;2022-12-05T04:58:06;8.10;69.20
45785;DHT22;31489;51.404;5.474;2022-12-05T05:00:37;8.10;69.10
45785;DHT22;31489;51.404;5.474;2022-12-05T05:03:18;8.10;69.20
45785;DHT22;31489;51.404;5.474;2022-12-05T05:05:47;8.10;69.20
45785;DHT22;31489;51.404;5.474;2022-12-05T05:08:19;8.10;69.10
45785;DHT22;31489;51.404;5.474;2022-12-05T05:11:10;8.10;69.30
45785;DHT22;31489;51.404;5.474;2022-12-05T05:13:37;8.10;69.30
45785;DHT22;31489;51.404;5.474;2022-12-05T05:16:03;8.10;69.20
45785;DHT22;31489;51.404;5.474;2022-12-05T05:18:29;8.10;69.20
45785;DHT22;31489;51.404;5.474;2022-12-05T05:20:54;8.10;69.20
45785;DHT22;31489;51.404;5.474;2022-12-05T05:23:20;8.10;69.20
45785;DHT22;31489;51.404;5.474;2022-12-05T05:25:53;8.10;69.20
45785;DHT22;31489;51.404;5.474;2022-12-05T05:28:20;8.10;69.30
45785;DHT22;31489;51.404;5.474;2022-12-05T05:30:46;8.20;69.30
45785;DHT22;31489;51.404;5.474;2022-12-05T05:33:12;8.20;69.30
45785;DHT22;31489;51.404;5.474;2022-12-05T05:35:38;8.10;69.20
45785;DHT22;31489;51.404;5.474;2022-12-05T05:38:04;8.10;69.20
45785;DHT22;31489;51.404;5.474;2022-12-05T05:40:30;8.10;69.20
45785;DHT22;31489;51.404;5.474;2022-12-05T05:42:58;8.10;69.40
45785;DHT22;31489;51.404;5.474;2022-12-05T05:45:24;8.10;69.60
45785;DHT22;31489;51.404;5.474;2022-12-05T05:47:50;8.20;69.60
45785;DHT22;31489;51.404;5.474;2022-12-05T05:50:15;8.20;69.60
45785;DHT22;31489;51.404;5.474;2022-12-05T05:52:41;8.20;69.60
45785;DHT22;31489;51.404;5.474;2022-12-05T05:55:07;8.20;69.60
45785;DHT22;31489;51.404;5.474;2022-12-05T05:57:34;8.20;69.70
45785;DHT22;31489;51.404;5.474;2022-12-05T06:00:01;8.20;69.70
45785;DHT22;31489;51.404;5.474;2022-12-05T06:02:31;8.20;69.70
45785;DHT22;31489;51.404;5.474;2022-12-05T06:04:58;8.20;69.70
45785;DHT22;31489;51.404;5.474;2022-12-05T06:07:23;8.20;69.70
45785;DHT22;31489;51.404;5.474;2022-12-05T06:09:49;8.20;69.80
45785;DHT22;31489;51.404;5.474;2022-12-05T06:12:14;8.20;69.80
45785;DHT22;31489;51.404;5.474;2022-12-05T06:14:40;8.20;69.80
45785;DHT22;31489;51.404;5.474;2022-12-05T06:17:06;8.20;69.90
45785;DHT22;31489;51.404;5.474;2022-12-05T06:19:31;8.20;69.90
45785;DHT22;31489;51.404;5.474;2022-12-05T06:21:57;8.20;70.00
45785;DHT22;31489;51.404;5.474;2022-12-05T06:24:22;8.20;70.00
45785;DHT22;31489;51.404;5.474;2022-12-05T06:26:48;8.20;69.90
45785;DHT22;31489;51.404;5.474;2022-12-05T06:29:14;8.20;69.90
45785;DHT22;31489;51.404;5.474;2022-12-05T06:31:40;8.20;69.90
45785;DHT22;31489;51.404;5.474;2022-12-05T06:34:06;8.20;69.80
45785;DHT22;31489;51.404;5.474;2022-12-05T06:36:31;8.20;69.90
45785;DHT22;31489;51.404;5.474;2022-12-05T06:38:58;8.20;70.00
45785;DHT22;31489;51.404;5.474;2022-12-05T06:41:24;8.20;70.00
45785;DHT22;31489;51.404;5.474;2022-12-05T06:43:53;8.20;70.00
45785;DHT22;31489;51.404;5.474;2022-12-05T06:46:19;8.30;70.10
45785;DHT22;31489;51.404;5.474;2022-12-05T06:48:45;8.20;70.00
45785;DHT22;31489;51.404;5.474;2022-12-05T06:51:13;8.20;70.00
45785;DHT22;31489;51.404;5.474;2022-12-05T06:53:39;8.30;70.10
45785;DHT22;31489;51.404;5.474;2022-12-05T06:56:08;8.30;70.10
45785;DHT22;31489;51.404;5.474;2022-12-05T06:58:44;8.30;70.00
45785;DHT22;31489;51.404;5.474;2022-12-05T07:01:12;8.30;70.00
45785;DHT22;31489;51.404;5.474;2022-12-05T07:03:57;8.30;70.00
45785;DHT22;31489;51.404;5.474;2022-12-05T07:06:24;8.30;70.00
45785;DHT22;31489;51.404;5.474;2022-12-05T07:08:50;8.30;70.00
45785;DHT22;31489;51.404;5.474;2022-12-05T07:11:15;8.30;70.10
45785;DHT22;31489;51.404;5.474;2022-12-05T07:13:41;8.30;70.00
45785;DHT22;31489;51.404;5.474;2022-12-05T07:16:07;8.30;70.00
45785;DHT22;31489;51.404;5.474;2022-12-05T07:18:33;8.30;70.20
45785;DHT22;31489;51.404;5.474;2022-12-05T07:21:03;8.30;70.30
45785;DHT22;31489;51.404;5.474;2022-12-05T07:23:29;8.30;70.30
45785;DHT22;31489;51.404;5.474;2022-12-05T07:25:54;8.30;70.20
45785;DHT22;31489;51.404;5.474;2022-12-05T07:28:22;8.30;70.20
45785;DHT22;31489;51.404;5.474;2022-12-05T07:31:02;8.30;70.20
45785;DHT22;31489;51.404;5.474;2022-12-05T07:33:28;8.40;70.70
45785;DHT22;31489;51.404;5.474;2022-12-05T07:36:02;8.40;70.40
45785;DHT22;31489;51.404;5.474;2022-12-05T07:38:35;8.30;70.60
45785;DHT22;31489;51.404;5.474;2022-12-05T07:41:08;8.30;70.30
45785;DHT22;31489;51.404;5.474;2022-12-05T07:43:34;8.30;70.30
45785;DHT22;31489;51.404;5.474;2022-12-05T07:46:04;8.40;70.30
45785;DHT22;31489;51.404;5.474;2022-12-05T07:48:30;8.40;70.40
45785;DHT22;31489;51.404;5.474;2022-12-05T07:51:03;8.40;70.50
45785;DHT22;31489;51.404;5.474;2022-12-05T07:53:30;8.30;70.60
45785;DHT22;31489;51.404;5.474;2022-12-05T07:56:01;8.30;70.60
45785;DHT22;31489;51.404;5.474;2022-12-05T07:58:28;8.30;70.70
45785;DHT22;31489;51.404;5.474;2022-12-05T08:00:54;8.40;70.60
45785;DHT22;31489;51.404;5.474;2022-12-05T08:03:20;8.40;70.60
45785;DHT22;31489;51.404;5.474;2022-12-05T08:05:46;8.40;70.60
45785;DHT22;31489;51.404;5.474;2022-12-05T08:08:12;8.30;70.70
45785;DHT22;31489;51.404;5.474;2022-12-05T08:10:38;8.30;70.70
45785;DHT22;31489;51.404;5.474;2022-12-05T08:13:03;8.30;70.60
45785;DHT22;31489;51.404;5.474;2022-12-05T08:15:29;8.40;70.70
45785;DHT22;31489;51.404;5.474;2022-12-05T08:17:55;8.30;70.70
45785;DHT22;31489;51.404;5.474;2022-12-05T08:20:21;8.40;70.80
45785;DHT22;31489;51.404;5.474;2022-12-05T08:22:46;8.40;70.70
45785;DHT22;31489;51.404;5.474;2022-12-05T08:25:12;8.40;70.70
45785;DHT22;31489;51.404;5.474;2022-12-05T08:27:38;8.40;70.80
45785;DHT22;31489;51.404;5.474;2022-12-05T08:30:04;8.40;70.70
45785;DHT22;31489;51.404;5.474;2022-12-05T08:32:30;8.40;70.70
45785;DHT22;31489;51.404;5.474;2022-12-05T08:34:56;8.40;70.70
45785;DHT22;31489;51.404;5.474;2022-12-05T08:37:24;8.40;70.70
45785;DHT22;31489;51.404;5.474;2022-12-05T08:39:50;8.40;70.70
45785;DHT22;31489;51.404;5.474;2022-12-05T08:42:15;8.40;70.70
45785;DHT22;31489;51.404;5.474;2022-12-05T08:44:41;8.40;70.80
45785;DHT22;31489;51.404;5.474;2022-12-05T08:47:06;8.40;70.90
45785;DHT22;31489;51.404;5.474;2022-12-05T08:49:32;8.40;71.00
45785;DHT22;31489;51.404;5.474;2022-12-05T08:51:58;8.50;71.10
45785;DHT22;31489;51.404;5.474;2022-12-05T08:54:24;8.40;70.90
45785;DHT22;31489;51.404;5.474;2022-12-05T08:56:50;8.50;70.90
45785;DHT22;31489;51.404;5.474;2022-12-05T08:59:16;8.50;71.00
45785;DHT22;31489;51.404;5.474;2022-12-05T09:01:42;8.50;71.00
45785;DHT22;31489;51.404;5.474;2022-12-05T09:04:08;8.50;71.00
45785;DHT22;31489;51.404;5.474;2022-12-05T09:06:34;8.50;71.00
45785;DHT22;31489;51.404;5.474;2022-12-05T09:09:04;8.50;70.90
45785;DHT22;31489;51.404;5.474;2022-12-05T09:11:32;8.50;70.90
45785;DHT22;31489;51.404;5.474;2022-12-05T09:13:59;8.50;70.80
45785;DHT22;31489;51.404;5.474;2022-12-05T09:16:31;8.50;70.90
45785;DHT22;31489;51.404;5.474;2022-12-05T09:18:57;8.50;71.00
45785;DHT22;31489;51.404;5.474;2022-12-05T09:21:25;8.50;70.90
45785;DHT22;31489;51.404;5.474;2022-12-05T09:23:51;8.50;70.90
45785;DHT22;31489;51.404;5.474;2022-12-05T09:26:20;8.50;71.10
45785;DHT22;31489;51.404;5.474;2022-12-05T09:28:46;8.50;71.20
45785;DHT22;31489;51.404;5.474;2022-12-05T09:31:17;8.50;71.30
45785;DHT22;31489;51.404;5.474;2022-12-05T09:33:44;8.50;71.30
45785;DHT22;31489;51.404;5.474;2022-12-05T09:36:36;8.50;71.20
45785;DHT22;31489;51.404;5.474;2022-12-05T09:39:04;8.50;71.60
45785;DHT22;31489;51.404;5.474;2022-12-05T09:44:58;8.60;71.40
45785;DHT22;31489;51.404;5.474;2022-12-05T09:50:18;8.60;71.40
45785;DHT22;31489;51.404;5.474;2022-12-05T09:53:10;8.60;71.80
45785;DHT22;31489;51.404;5.474;2022-12-05T10:07:35;8.70;71.60
45785;DHT22;31489;51.404;5.474;2022-12-05T10:10:23;8.70;71.50
45785;DHT22;31489;51.404;5.474;2022-12-05T10:15:52;8.70;71.50
45785;DHT22;31489;51.404;5.474;2022-12-05T10:18:33;8.70;71.40
45785;DHT22;31489;51.404;5.474;2022-12-05T10:21:19;8.70;71.70
45785;DHT22;31489;51.404;5.474;2022-12-05T10:23:59;8.70;71.60
45785;DHT22;31489;51.404;5.474;2022-12-05T10:26:33;8.70;71.70
45785;DHT22;31489;51.404;5.474;2022-12-05T10:29:11;8.80;71.40
45785;DHT22;31489;51.404;5.474;2022-12-05T10:31:44;8.70;71.30
45785;DHT22;31489;51.404;5.474;2022-12-05T10:34:22;8.80;71.30
45785;DHT22;31489;51.404;5.474;2022-12-05T10:37:07;8.80;71.30
45785;DHT22;31489;51.404;5.474;2022-12-05T10:39:34;8.80;71.30
45785;DHT22;31489;51.404;5.474;2022-12-05T10:42:00;8.80;71.40
45785;DHT22;31489;51.404;5.474;2022-12-05T10:44:26;8.80;71.50
45785;DHT22;31489;51.404;5.474;2022-12-05T10:46:52;8.80;71.40
45785;DHT22;31489;51.404;5.474;2022-12-05T10:49:17;8.80;71.30
45785;DHT22;31489;51.404;5.474;2022-12-05T10:51:44;8.90;71.30
45785;DHT22;31489;51.404;5.474;2022-12-05T10:54:23;8.80;71.30
45785;DHT22;31489;51.404;5.474;2022-12-05T10:56:51;8.90;71.30
45785;DHT22;31489;51.404;5.474;2022-12-05T10:59:21;8.90;71.10
45785;DHT22;31489;51.404;5.474;2022-12-05T11:01:53;8.90;71.30
45785;DHT22;31489;51.404;5.474;2022-12-05T11:04:40;8.80;71.10
45785;DHT22;31489;51.404;5.474;2022-12-05T11:07:37;8.80;71.40
45785;DHT22;31489;51.404;5.474;2022-12-05T11:12:57;8.90;71.40
45785;DHT22;31489;51.404;5.474;2022-12-05T11:15:26;8.90;71.10
45785;DHT22;31489;51.404;5.474;2022-12-05T11:17:54;8.90;71.30
45785;DHT22;31489;51.404;5.474;2022-12-05T11:22:48;8.90;71.30
45785;DHT22;31489;51.404;5.474;2022-12-05T11:27:52;8.90;71.30
45785;DHT22;31489;51.404;5.474;2022-12-05T11:30:22;8.90;71.10
45785;DHT22;31489;51.404;5.474;2022-12-05T11:32:49;8.90;71.10
45785;DHT22;31489;51.404;5.474;2022-12-05T11:35:24;8.90;71.30
45785;DHT22;31489;51.404;5.474;2022-12-05T11:37:57;8.90;71.40
45785;DHT22;31489;51.404;5.474;2022-12-05T11:43:34;8.90;71.40
45785;DHT22;31489;51.404;5.474;2022-12-05T11:46:20;9.00;71.30
45785;DHT22;31489;51.404;5.474;2022-12-05T11:57:04;9.00;71.10
45785;DHT22;31489;51.404;5.474;2022-12-05T11:59:42;9.00;71.20
45785;DHT22;31489;51.404;5.474;2022-12-05T12:07:47;9.00;71.10
45785;DHT22;31489;51.404;5.474;2022-12-05T12:18:53;9.00;70.70
45785;DHT22;31489;51.404;5.474;2022-12-05T12:21:37;9.00;71.00
45785;DHT22;31489;51.404;5.474;2022-12-05T12:40:40;9.00;71.00
45785;DHT22;31489;51.404;5.474;2022-12-05T12:52:19;9.00;71.10
45785;DHT22;31489;51.404;5.474;2022-12-05T12:57:44;9.00;71.00
45785;DHT22;31489;51.404;5.474;2022-12-05T13:00:21;9.00;71.00
45785;DHT22;31489;51.404;5.474;2022-12-05T13:02:59;9.00;70.90
45785;DHT22;31489;51.404;5.474;2022-12-05T13:10:47;9.00;71.30
45785;DHT22;31489;51.404;5.474;2022-12-05T13:13:20;9.00;71.10
45785;DHT22;31489;51.404;5.474;2022-12-05T13:15:50;9.00;71.10
45785;DHT22;31489;51.404;5.474;2022-12-05T13:18:20;9.00;71.00
45785;DHT22;31489;51.404;5.474;2022-12-05T13:20:52;9.00;71.10
45785;DHT22;31489;51.404;5.474;2022-12-05T13:23:23;9.00;71.10
45785;DHT22;31489;51.404;5.474;2022-12-05T13:25:50;9.00;71.10
45785;DHT22;31489;51.404;5.474;2022-12-05T13:28:29;9.00;70.90
45785;DHT22;31489;51.404;5.474;2022-12-05T13:30:57;9.00;71.20
45785;DHT22;31489;51.404;5.474;2022-12-05T13:33:30;9.00;71.10
45785;DHT22;31489;51.404;5.474;2022-12-05T13:36:07;9.00;71.20
45785;DHT22;31489;51.404;5.474;2022-12-05T13:39:32;9.00;71.10
45785;DHT22;31489;51.404;5.474;2022-12-05T13:42:21;9.10;71.10
45785;DHT22;31489;51.404;5.474;2022-12-05T13:47:27;9.10;71.10
45785;DHT22;31489;51.404;5.474;2022-12-05T13:50:00;9.10;71.30
45785;DHT22;31489;51.404;5.474;2022-12-05T13:52:29;9.10;71.30
45785;DHT22;31489;51.404;5.474;2022-12-05T13:55:30;9.00;71.40
45785;DHT22;31489;51.404;5.474;2022-12-05T13:57:58;9.00;71.60
45785;DHT22;31489;51.404;5.474;2022-12-05T14:00:30;9.00;71.30
45785;DHT22;31489;51.404;5.474;2022-12-05T14:03:05;9.10;71.40
45785;DHT22;31489;51.404;5.474;2022-12-05T14:15:53;9.00;71.20
45785;DHT22;31489;51.404;5.474;2022-12-05T14:34:27;9.00;71.60
45785;DHT22;31489;51.404;5.474;2022-12-05T14:39:43;9.10;71.50
45785;DHT22;31489;51.404;5.474;2022-12-05T14:44:49;9.10;71.80
45785;DHT22;31489;51.404;5.474;2022-12-05T14:47:21;9.10;71.60
45785;DHT22;31489;51.404;5.474;2022-12-05T14:52:40;9.10;71.80
45785;DHT22;31489;51.404;5.474;2022-12-05T14:55:11;9.10;71.70
45785;DHT22;31489;51.404;5.474;2022-12-05T14:57:46;9.10;71.90
45785;DHT22;31489;51.404;5.474;2022-12-05T15:00:21;9.10;72.00
45785;DHT22;31489;51.404;5.474;2022-12-05T15:02:50;9.10;71.90
45785;DHT22;31489;51.404;5.474;2022-12-05T15:05:23;9.10;71.70
45785;DHT22;31489;51.404;5.474;2022-12-05T15:07:51;9.10;71.40
45785;DHT22;31489;51.404;5.474;2022-12-05T15:10:32;9.10;71.40
45785;DHT22;31489;51.404;5.474;2022-12-05T15:15:36;9.10;71.40
45785;DHT22;31489;51.404;5.474;2022-12-05T15:18:17;9.10;71.40
45785;DHT22;31489;51.404;5.474;2022-12-05T15:23:58;9.10;71.50
45785;DHT22;31489;51.404;5.474;2022-12-05T15:34:55;9.10;71.70
45785;DHT22;31489;51.404;5.474;2022-12-05T15:37:31;9.10;71.90
45785;DHT22;31489;51.404;5.474;2022-12-05T15:39:59;9.00;71.80
45785;DHT22;31489;51.404;5.474;2022-12-05T15:42:34;9.10;71.90
45785;DHT22;31489;51.404;5.474;2022-12-05T15:50:25;9.00;71.80
45785;DHT22;31489;51.404;5.474;2022-12-05T15:53:16;9.00;72.00
45785;DHT22;31489;51.404;5.474;2022-12-05T15:55:52;9.00;72.00
45785;DHT22;31489;51.404;5.474;2022-12-05T15:58:29;9.00;71.80
45785;DHT22;31489;51.404;5.474;2022-12-05T16:01:16;9.00;71.80
45785;DHT22;31489;51.404;5.474;2022-12-05T16:06:35;9.00;72.00
45785;DHT22;31489;51.404;5.474;2022-12-05T16:09:07;9.00;72.00
45785;DHT22;31489;51.404;5.474;2022-12-05T16:11:34;9.00;72.20
45785;DHT22;31489;51.404;5.474;2022-12-05T16:14:02;9.00;72.30
45785;DHT22;31489;51.404;5.474;2022-12-05T16:16:35;9.00;72.20
45785;DHT22;31489;51.404;5.474;2022-12-05T16:19:11;9.00;72.30
45785;DHT22;31489;51.404;5.474;2022-12-05T16:21:45;9.00;72.30
45785;DHT22;31489;51.404;5.474;2022-12-05T16:24:20;9.00;72.20
45785;DHT22;31489;51.404;5.474;2022-12-05T16:26:57;9.00;72.40
45785;DHT22;31489;51.404;5.474;2022-12-05T16:29:29;9.00;72.30
45785;DHT22;31489;51.404;5.474;2022-12-05T16:31:57;9.00;72.20
45785;DHT22;31489;51.404;5.474;2022-12-05T16:34:24;9.00;72.20
45785;DHT22;31489;51.404;5.474;2022-12-05T16:36:52;9.00;72.20
45785;DHT22;31489;51.404;5.474;2022-12-05T16:39:19;9.00;72.20
45785;DHT22;31489;51.404;5.474;2022-12-05T16:41:45;8.90;72.10
45785;DHT22;31489;51.404;5.474;2022-12-05T16:46:53;8.90;72.80
45785;DHT22;31489;51.404;5.474;2022-12-05T16:49:33;8.90;72.60
45785;DHT22;31489;51.404;5.474;2022-12-05T16:54:32;8.90;72.70
45785;DHT22;31489;51.404;5.474;2022-12-05T16:56:59;8.90;72.70
45785;DHT22;31489;51.404;5.474;2022-12-05T16:59:32;8.90;72.80
45785;DHT22;31489;51.404;5.474;2022-12-05T17:01:58;8.90;72.80
45785;DHT22;31489;51.404;5.474;2022-12-05T17:04:26;8.90;72.70
45785;DHT22;31489;51.404;5.474;2022-12-05T17:06:52;8.90;73.00
45785;DHT22;31489;51.404;5.474;2022-12-05T17:09:18;8.90;73.00
45785;DHT22;31489;51.404;5.474;2022-12-05T17:11:44;8.90;73.10
45785;DHT22;31489;51.404;5.474;2022-12-05T17:14:13;8.90;73.10
45785;DHT22;31489;51.404;5.474;2022-12-05T17:16:40;8.90;73.00
45785;DHT22;31489;51.404;5.474;2022-12-05T17:19:06;8.90;73.10
45785;DHT22;31489;51.404;5.474;2022-12-05T17:21:33;8.90;73.10
45785;DHT22;31489;51.404;5.474;2022-12-05T17:23:59;8.90;73.00
45785;DHT22;31489;51.404;5.474;2022-12-05T17:26:25;8.90;73.00
45785;DHT22;31489;51.404;5.474;2022-12-05T17:28:51;8.90;73.10
45785;DHT22;31489;51.404;5.474;2022-12-05T17:31:22;8.90;73.00
45785;DHT22;31489;51.404;5.474;2022-12-05T17:33:49;8.90;73.30
45785;DHT22;31489;51.404;5.474;2022-12-05T17:36:15;8.90;73.40
45785;DHT22;31489;51.404;5.474;2022-12-05T17:38:42;8.90;73.50
45785;DHT22;31489;51.404;5.474;2022-12-05T17:41:23;8.90;73.40
45785;DHT22;31489;51.404;5.474;2022-12-05T17:43:50;8.90;73.40
45785;DHT22;31489;51.404;5.474;2022-12-05T17:46:20;8.90;73.30
45785;DHT22;31489;51.404;5.474;2022-12-05T17:48:46;8.90;73.30
45785;DHT22;31489;51.404;5.474;2022-12-05T17:51:12;8.90;73.20
45785;DHT22;31489;51.404;5.474;2022-12-05T17:53:40;8.90;73.80
45785;DHT22;31489;51.404;5.474;2022-12-05T17:56:06;8.90;73.30
45785;DHT22;31489;51.404;5.474;2022-12-05T17:58:32;8.90;73.30
45785;DHT22;31489;51.404;5.474;2022-12-05T18:00:58;8.90;73.20
45785;DHT22;31489;51.404;5.474;2022-12-05T18:03:24;8.90;73.30
45785;DHT22;31489;51.404;5.474;2022-12-05T18:05:50;8.90;73.40
45785;DHT22;31489;51.404;5.474;2022-12-05T18:08:16;8.90;73.40
45785;DHT22;31489;51.404;5.474;2022-12-05T18:10:44;8.90;73.40
45785;DHT22;31489;51.404;5.474;2022-12-05T18:13:11;8.90;73.40
45785;DHT22;31489;51.404;5.474;2022-12-05T18:15:37;8.90;73.30
45785;DHT22;31489;51.404;5.474;2022-12-05T18:18:03;9.00;73.50
45785;DHT22;31489;51.404;5.474;2022-12-05T18:20:31;8.90;73.40
45785;DHT22;31489;51.404;5.474;2022-12-05T18:22:57;8.90;73.40
45785;DHT22;31489;51.404;5.474;2022-12-05T18:25:23;8.90;73.60
45785;DHT22;31489;51.404;5.474;2022-12-05T18:27:49;8.90;73.70
45785;DHT22;31489;51.404;5.474;2022-12-05T18:30:15;8.90;73.70
45785;DHT22;31489;51.404;5.474;2022-12-05T18:32:40;8.90;73.70
45785;DHT22;31489;51.404;5.474;2022-12-05T18:35:06;9.00;73.80
45785;DHT22;31489;51.404;5.474;2022-12-05T18:37:37;9.00;73.70
45785;DHT22;31489;51.404;5.474;2022-12-05T18:40:04;9.00;73.80
45785;DHT22;31489;51.404;5.474;2022-12-05T18:42:30;9.00;73.80
45785;DHT22;31489;51.404;5.474;2022-12-05T18:44:56;9.00;73.80
45785;DHT22;31489;51.404;5.474;2022-12-05T18:47:22;9.00;73.80
45785;DHT22;31489;51.404;5.474;2022-12-05T18:49:49;9.00;73.80
45785;DHT22;31489;51.404;5.474;2022-12-05T18:52:15;9.00;73.90
45785;DHT22;31489;51.404;5.474;2022-12-05T18:54:43;9.10;74.00
45785;DHT22;31489;51.404;5.474;2022-12-05T18:57:09;9.10;74.00
45785;DHT22;31489;51.404;5.474;2022-12-05T18:59:35;9.00;74.00
45785;DHT22;31489;51.404;5.474;2022-12-05T19:02:01;9.10;74.00
45785;DHT22;31489;51.404;5.474;2022-12-05T19:04:29;9.10;74.00
45785;DHT22;31489;51.404;5.474;2022-12-05T19:06:59;9.10;73.90
45785;DHT22;31489;51.404;5.474;2022-12-05T19:09:28;9.10;74.00
45785;DHT22;31489;51.404;5.474;2022-12-05T19:11:57;9.10;74.10
45785;DHT22;31489;51.404;5.474;2022-12-05T19:14:24;9.20;74.10
45785;DHT22;31489;51.404;5.474;2022-12-05T19:16:52;9.20;74.10
45785;DHT22;31489;51.404;5.474;2022-12-05T19:19:19;9.20;74.10
45785;DHT22;31489;51.404;5.474;2022-12-05T19:21:45;9.20;74.00